sensor_id;sensor_type;location;lat;lon;timestamp;temperature;humidity
72936;DHT22;61085;48.804;9.228;2023-05-07T00:02:23;16.40;99.90
72936;DHT22;61085;48.804;9.228;2023-05-07T00:04:49;16.40;99.90
72936;DHT22;61085;48.804;9.228;2023-05-07T00:07:15;16.40;99.90
72936;DHT22;61085;48.804;9.228;2023-05-07T00:09:41;16.50;99.90
72936;DHT22;61085;48.804;9.228;2023-05-07T00:12:07;16.30;99.90
72936;DHT22;61085;48.804;9.228;2023-05-07T00:14:33;16.20;99.90
72936;DHT22;61085;48.804;9.228;2023-05-07T00:16:58;16.20;99.90
72936;DHT22;61085;48.804;9.228;2023-05-07T00:19:24;16.20;99.90
72936;DHT22;61085;48.804;9.228;2023-05-07T00:21:49;16.40;99.90
72936;DHT22;61085;48.804;9.228;2023-05-07T00:24:15;16.20;99.90
72936;DHT22;61085;48.804;9.228;2023-05-07T00:26:41;16.10;99.90
72936;DHT22;61085;48.804;9.228;2023-05-07T00:29:06;16.00;99.90
72936;DHT22;61085;48.804;9.228;2023-05-07T00:31:32;15.90;99.90
72936;DHT22;61085;48.804;9.228;2023-05-07T00:33:58;15.80;99.90
72936;DHT22;61085;48.804;9.228;2023-05-07T00:36:23;15.80;99.90
72936;DHT22;61085;48.804;9.228;2023-05-07T00:38:49;15.90;99.90
72936;DHT22;61085;48.804;9.228;2023-05-07T00:41:15;15.90;99.90
72936;DHT22;61085;48.804;9.228;2023-05-07T00:43:41;16.00;99.90
72936;DHT22;61085;48.804;9.228;2023-05-07T00:46:06;16.00;99.90
72936;DHT22;61085;48.804;9.228;2023-05-07T00:48:32;16.10;99.90
72936;DHT22;61085;48.804;9.228;2023-05-07T00:50:58;16.00;99.90
72936;DHT22;61085;48.804;9.228;2023-05-07T00:53:23;16.10;99.90
72936;DHT22;61085;48.804;9.228;2023-05-07T00:55:49;15.90;99.90
72936;DHT22;61085;48.804;9.228;2023-05-07T00:58:16;15.90;99.90
72936;DHT22;61085;48.804;9.228;2023-05-07T01:00:41;15.90;99.90
72936;DHT22;61085;48.804;9.228;2023-05-07T01:03:07;16.10;99.90
72936;DHT22;61085;48.804;9.228;2023-05-07T01:05:33;15.80;99.90
72936;DHT22;61085;48.804;9.228;2023-05-07T01:07:59;15.60;99.90
72936;DHT22;61085;48.804;9.228;2023-05-07T01:10:25;15.50;99.90
72936;DHT22;61085;48.804;9.228;2023-05-07T01:12:51;15.30;99.90
72936;DHT22;61085;48.804;9.228;2023-05-07T01:15:19;15.50;99.90
72936;DHT22;61085;48.804;9.228;2023-05-07T01:17:44;15.60;99.90
72936;DHT22;61085;48.804;9.228;2023-05-07T01:20:10;15.70;99.90
72936;DHT22;61085;48.804;9.228;2023-05-07T01:22:37;15.60;99.90
72936;DHT22;61085;48.804;9.228;2023-05-07T01:25:04;15.60;99.90
72936;DHT22;61085;48.804;9.228;2023-05-07T01:27:30;15.60;99.90
72936;DHT22;61085;48.804;9.228;2023-05-07T01:29:56;15.60;99.90
72936;DHT22;61085;48.804;9.228;2023-05-07T01:32:33;15.60;99.90
72936;DHT22;61085;48.804;9.228;2023-05-07T01:35:02;15.50;99.90
72936;DHT22;61085;48.804;9.228;2023-05-07T01:37:29;15.50;99.90
72936;DHT22;61085;48.804;9.228;2023-05-07T01:39:55;15.40;99.90
72936;DHT22;61085;48.804;9.228;2023-05-07T01:42:21;15.30;99.90
72936;DHT22;61085;48.804;9.228;2023-05-07T01:44:47;15.30;99.90
72936;DHT22;61085;48.804;9.228;2023-05-07T01:47:13;15.30;99.90
72936;DHT22;61085;48.804;9.228;2023-05-07T01:49:40;15.40;99.90
72936;DHT22;61085;48.804;9.228;2023-05-07T01:52:07;15.30;99.90
72936;DHT22;61085;48.804;9.228;2023-05-07T01:54:33;15.40;99.90
72936;DHT22;61085;48.804;9.228;2023-05-07T01:56:59;15.30;99.90
72936;DHT22;61085;48.804;9.228;2023-05-07T01:59:25;15.30;99.90
72936;DHT22;61085;48.804;9.228;2023-05-07T02:01:51;15.40;99.90
72936;DHT22;61085;48.804;9.228;2023-05-07T02:04:17;15.40;99.90
72936;DHT22;61085;48.804;9.228;2023-05-07T02:06:43;15.40;99.90
72936;DHT22;61085;48.804;9.228;2023-05-07T02:09:08;15.30;99.90
72936;DHT22;61085;48.804;9.228;2023-05-07T02:11:34;15.30;99.90
72936;DHT22;61085;48.804;9.228;2023-05-07T02:14:00;15.30;99.90
72936;DHT22;61085;48.804;9.228;2023-05-07T02:16:25;15.20;99.90
72936;DHT22;61085;48.804;9.228;2023-05-07T02:18:51;15.10;99.90
72936;DHT22;61085;48.804;9.228;2023-05-07T02:21:17;15.20;99.90
72936;DHT22;61085;48.804;9.228;2023-05-07T02:23:42;15.20;99.90
72936;DHT22;61085;48.804;9.228;2023-05-07T02:26:08;15.20;99.90
72936;DHT22;61085;48.804;9.228;2023-05-07T02:28:34;15.20;99.90
72936;DHT22;61085;48.804;9.228;2023-05-07T02:31:03;15.10;99.90
72936;DHT22;61085;48.804;9.228;2023-05-07T02:33:29;15.00;99.90
72936;DHT22;61085;48.804;9.228;2023-05-07T02:35:55;14.90;99.90
72936;DHT22;61085;48.804;9.228;2023-05-07T02:38:20;14.90;99.90
72936;DHT22;61085;48.804;9.228;2023-05-07T02:40:46;14.90;99.90
72936;DHT22;61085;48.804;9.228;2023-05-07T02:43:11;15.00;99.90
72936;DHT22;61085;48.804;9.228;2023-05-07T02:45:37;15.10;99.90
72936;DHT22;61085;48.804;9.228;2023-05-07T02:48:03;15.00;99.90
72936;DHT22;61085;48.804;9.228;2023-05-07T02:50:29;15.00;99.90
72936;DHT22;61085;48.804;9.228;2023-05-07T02:52:55;14.90;99.90
72936;DHT22;61085;48.804;9.228;2023-05-07T02:55:21;14.90;99.90
72936;DHT22;61085;48.804;9.228;2023-05-07T02:57:46;15.00;99.90
72936;DHT22;61085;48.804;9.228;2023-05-07T03:00:13;15.00;99.90
72936;DHT22;61085;48.804;9.228;2023-05-07T03:02:39;15.10;99.90
72936;DHT22;61085;48.804;9.228;2023-05-07T03:05:06;14.90;99.90
72936;DHT22;61085;48.804;9.228;2023-05-07T03:07:31;15.00;99.90
72936;DHT22;61085;48.804;9.228;2023-05-07T03:09:57;14.90;99.90
72936;DHT22;61085;48.804;9.228;2023-05-07T03:12:23;14.90;99.90
72936;DHT22;61085;48.804;9.228;2023-05-07T03:14:48;14.90;99.90
72936;DHT22;61085;48.804;9.228;2023-05-07T03:17:14;14.80;99.90
72936;DHT22;61085;48.804;9.228;2023-05-07T03:19:41;14.70;99.90
72936;DHT22;61085;48.804;9.228;2023-05-07T03:22:07;14.40;99.90
72936;DHT22;61085;48.804;9.228;2023-05-07T03:24:32;14.20;99.90
72936;DHT22;61085;48.804;9.228;2023-05-07T03:26:58;14.30;99.90
72936;DHT22;61085;48.804;9.228;2023-05-07T03:29:23;14.40;99.90
72936;DHT22;61085;48.804;9.228;2023-05-07T03:31:49;14.40;99.90
72936;DHT22;61085;48.804;9.228;2023-05-07T03:34:15;14.50;99.90
72936;DHT22;61085;48.804;9.228;2023-05-07T03:36:42;14.50;99.90
72936;DHT22;61085;48.804;9.228;2023-05-07T03:39:08;14.50;99.90
72936;DHT22;61085;48.804;9.228;2023-05-07T03:41:33;14.50;99.90
72936;DHT22;61085;48.804;9.228;2023-05-07T03:43:59;14.50;99.90
72936;DHT22;61085;48.804;9.228;2023-05-07T03:46:24;14.40;99.90
72936;DHT22;61085;48.804;9.228;2023-05-07T03:48:51;14.40;99.90
72936;DHT22;61085;48.804;9.228;2023-05-07T03:51:17;14.40;99.90
72936;DHT22;61085;48.804;9.228;2023-05-07T03:53:43;14.50;99.90
72936;DHT22;61085;48.804;9.228;2023-05-07T03:56:08;14.40;99.90
72936;DHT22;61085;48.804;9.228;2023-05-07T03:58:34;14.50;99.90
72936;DHT22;61085;48.804;9.228;2023-05-07T04:01:00;14.50;99.90
72936;DHT22;61085;48.804;9.228;2023-05-07T04:03:26;14.50;99.90
72936;DHT22;61085;48.804;9.228;2023-05-07T04:05:52;14.50;99.90
72936;DHT22;61085;48.804;9.228;2023-05-07T04:08:17;14.40;99.90
72936;DHT22;61085;48.804;9.228;2023-05-07T04:10:43;14.40;99.90
72936;DHT22;61085;48.804;9.228;2023-05-07T04:13:08;14.40;99.90
72936;DHT22;61085;48.804;9.228;2023-05-07T04:15:35;14.60;99.90
72936;DHT22;61085;48.804;9.228;2023-05-07T04:18:01;14.60;99.90
72936;DHT22;61085;48.804;9.228;2023-05-07T04:20:27;14.50;99.90
72936;DHT22;61085;48.804;9.228;2023-05-07T04:22:52;14.50;99.90
72936;DHT22;61085;48.804;9.228;2023-05-07T04:25:18;14.50;99.90
72936;DHT22;61085;48.804;9.228;2023-05-07T04:27:43;14.50;99.90
72936;DHT22;61085;48.804;9.228;2023-05-07T04:30:09;14.60;99.90
72936;DHT22;61085;48.804;9.228;2023-05-07T04:32:35;14.60;99.90
72936;DHT22;61085;48.804;9.228;2023-05-07T04:35:03;14.70;99.90
72936;DHT22;61085;48.804;9.228;2023-05-07T04:37:28;14.80;99.90
72936;DHT22;61085;48.804;9.228;2023-05-07T04:39:54;14.90;99.90
72936;DHT22;61085;48.804;9.228;2023-05-07T04:42:19;15.40;99.90
72936;DHT22;61085;48.804;9.228;2023-05-07T04:44:45;16.20;99.90
72936;DHT22;61085;48.804;9.228;2023-05-07T04:47:11;17.30;99.90
72936;DHT22;61085;48.804;9.228;2023-05-07T04:49:38;18.20;99.90
72936;DHT22;61085;48.804;9.228;2023-05-07T04:52:04;19.10;99.90
72936;DHT22;61085;48.804;9.228;2023-05-07T04:54:30;19.10;99.90
72936;DHT22;61085;48.804;9.228;2023-05-07T04:56:55;18.70;99.90
72936;DHT22;61085;48.804;9.228;2023-05-07T04:59:21;18.30;99.90
72936;DHT22;61085;48.804;9.228;2023-05-07T05:01:47;17.80;99.90
72936;DHT22;61085;48.804;9.228;2023-05-07T05:04:12;17.40;99.90
72936;DHT22;61085;48.804;9.228;2023-05-07T05:06:38;17.10;99.90
72936;DHT22;61085;48.804;9.228;2023-05-07T05:09:04;16.80;99.90
72936;DHT22;61085;48.804;9.228;2023-05-07T05:11:30;16.70;99.90
72936;DHT22;61085;48.804;9.228;2023-05-07T05:13:56;16.40;99.90
72936;DHT22;61085;48.804;9.228;2023-05-07T05:16:22;16.10;99.90
72936;DHT22;61085;48.804;9.228;2023-05-07T05:18:47;16.10;99.90
72936;DHT22;61085;48.804;9.228;2023-05-07T05:21:13;16.10;99.90
72936;DHT22;61085;48.804;9.228;2023-05-07T05:23:38;16.10;99.90
72936;DHT22;61085;48.804;9.228;2023-05-07T05:26:04;16.00;99.90
72936;DHT22;61085;48.804;9.228;2023-05-07T05:28:30;16.10;99.90
72936;DHT22;61085;48.804;9.228;2023-05-07T05:30:55;16.20;99.90
72936;DHT22;61085;48.804;9.228;2023-05-07T05:33:21;17.00;99.90
72936;DHT22;61085;48.804;9.228;2023-05-07T05:35:46;17.80;99.90
72936;DHT22;61085;48.804;9.228;2023-05-07T05:38:12;19.40;99.90
72936;DHT22;61085;48.804;9.228;2023-05-07T05:40:38;20.80;99.90
72936;DHT22;61085;48.804;9.228;2023-05-07T05:43:04;20.90;99.10
72936;DHT22;61085;48.804;9.228;2023-05-07T05:45:29;21.20;98.80
72936;DHT22;61085;48.804;9.228;2023-05-07T05:47:56;21.80;97.00
72936;DHT22;61085;48.804;9.228;2023-05-07T05:50:22;22.40;93.20
72936;DHT22;61085;48.804;9.228;2023-05-07T05:52:47;22.90;92.00
72936;DHT22;61085;48.804;9.228;2023-05-07T05:55:13;24.20;85.30
72936;DHT22;61085;48.804;9.228;2023-05-07T05:57:39;23.70;79.90
72936;DHT22;61085;48.804;9.228;2023-05-07T06:00:06;22.90;82.60
72936;DHT22;61085;48.804;9.228;2023-05-07T06:02:32;22.40;87.60
72936;DHT22;61085;48.804;9.228;2023-05-07T06:04:57;22.10;88.80
72936;DHT22;61085;48.804;9.228;2023-05-07T06:07:23;22.40;90.00
72936;DHT22;61085;48.804;9.228;2023-05-07T06:09:48;22.70;88.30
72936;DHT22;61085;48.804;9.228;2023-05-07T06:12:14;22.20;88.80
72936;DHT22;61085;48.804;9.228;2023-05-07T06:14:40;22.30;90.90
72936;DHT22;61085;48.804;9.228;2023-05-07T06:17:07;22.80;88.50
72936;DHT22;61085;48.804;9.228;2023-05-07T06:19:33;23.00;82.90
72936;DHT22;61085;48.804;9.228;2023-05-07T06:21:58;21.90;87.70
72936;DHT22;61085;48.804;9.228;2023-05-07T06:24:26;21.40;90.50
72936;DHT22;61085;48.804;9.228;2023-05-07T06:26:52;21.20;92.50
72936;DHT22;61085;48.804;9.228;2023-05-07T06:29:18;20.60;94.40
72936;DHT22;61085;48.804;9.228;2023-05-07T06:31:43;20.50;95.70
72936;DHT22;61085;48.804;9.228;2023-05-07T06:34:09;20.30;96.70
72936;DHT22;61085;48.804;9.228;2023-05-07T06:36:35;20.50;97.40
72936;DHT22;61085;48.804;9.228;2023-05-07T06:39:00;20.30;98.10
72936;DHT22;61085;48.804;9.228;2023-05-07T06:41:26;20.20;97.00
72936;DHT22;61085;48.804;9.228;2023-05-07T06:43:52;20.70;97.40
72936;DHT22;61085;48.804;9.228;2023-05-07T06:46:17;21.20;96.50
72936;DHT22;61085;48.804;9.228;2023-05-07T06:48:43;21.30;95.30
72936;DHT22;61085;48.804;9.228;2023-05-07T06:51:09;21.60;93.10
72936;DHT22;61085;48.804;9.228;2023-05-07T06:53:35;21.40;93.50
72936;DHT22;61085;48.804;9.228;2023-05-07T06:56:01;21.90;93.20
72936;DHT22;61085;48.804;9.228;2023-05-07T06:58:26;22.60;91.80
72936;DHT22;61085;48.804;9.228;2023-05-07T07:00:52;23.30;89.30
72936;DHT22;61085;48.804;9.228;2023-05-07T07:03:17;23.70;85.80
72936;DHT22;61085;48.804;9.228;2023-05-07T07:05:43;23.80;78.90
72936;DHT22;61085;48.804;9.228;2023-05-07T07:08:09;23.70;76.80
72936;DHT22;61085;48.804;9.228;2023-05-07T07:10:35;23.50;78.60
72936;DHT22;61085;48.804;9.228;2023-05-07T07:13:00;23.90;75.50
72936;DHT22;61085;48.804;9.228;2023-05-07T07:15:26;24.10;75.40
72936;DHT22;61085;48.804;9.228;2023-05-07T07:17:52;24.00;73.80
72936;DHT22;61085;48.804;9.228;2023-05-07T07:20:17;24.40;71.50
72936;DHT22;61085;48.804;9.228;2023-05-07T07:22:43;24.30;71.00
72936;DHT22;61085;48.804;9.228;2023-05-07T07:25:09;23.90;69.90
72936;DHT22;61085;48.804;9.228;2023-05-07T07:27:36;23.60;72.20
72936;DHT22;61085;48.804;9.228;2023-05-07T07:30:02;23.30;73.20
72936;DHT22;61085;48.804;9.228;2023-05-07T07:32:28;23.60;77.00
72936;DHT22;61085;48.804;9.228;2023-05-07T07:34:54;24.40;73.40
72936;DHT22;61085;48.804;9.228;2023-05-07T07:37:19;24.50;71.90
72936;DHT22;61085;48.804;9.228;2023-05-07T07:39:45;24.80;69.30
72936;DHT22;61085;48.804;9.228;2023-05-07T07:42:10;24.90;67.80
72936;DHT22;61085;48.804;9.228;2023-05-07T07:44:36;24.40;69.90
72936;DHT22;61085;48.804;9.228;2023-05-07T07:47:02;24.50;71.30
72936;DHT22;61085;48.804;9.228;2023-05-07T07:49:27;24.90;72.40
72936;DHT22;61085;48.804;9.228;2023-05-07T07:51:53;25.40;68.00
72936;DHT22;61085;48.804;9.228;2023-05-07T07:54:19;25.60;70.40
72936;DHT22;61085;48.804;9.228;2023-05-07T07:56:44;25.50;70.00
72936;DHT22;61085;48.804;9.228;2023-05-07T07:59:10;25.70;68.50
72936;DHT22;61085;48.804;9.228;2023-05-07T08:01:35;25.60;69.40
72936;DHT22;61085;48.804;9.228;2023-05-07T08:04:01;25.10;65.60
72936;DHT22;61085;48.804;9.228;2023-05-07T08:06:28;24.80;70.60
72936;DHT22;61085;48.804;9.228;2023-05-07T08:08:54;24.30;70.30
72936;DHT22;61085;48.804;9.228;2023-05-07T08:11:21;23.90;70.10
72936;DHT22;61085;48.804;9.228;2023-05-07T08:13:48;23.50;72.00
72936;DHT22;61085;48.804;9.228;2023-05-07T08:16:13;23.10;74.40
72936;DHT22;61085;48.804;9.228;2023-05-07T08:18:39;23.00;75.80
72936;DHT22;61085;48.804;9.228;2023-05-07T08:21:05;22.60;78.90
72936;DHT22;61085;48.804;9.228;2023-05-07T08:23:31;22.70;79.20
72936;DHT22;61085;48.804;9.228;2023-05-07T08:25:57;22.80;80.80
72936;DHT22;61085;48.804;9.228;2023-05-07T08:28:22;23.10;83.00
72936;DHT22;61085;48.804;9.228;2023-05-07T08:30:50;23.70;78.60
72936;DHT22;61085;48.804;9.228;2023-05-07T08:33:15;24.10;75.90
72936;DHT22;61085;48.804;9.228;2023-05-07T08:35:41;23.90;74.50
72936;DHT22;61085;48.804;9.228;2023-05-07T08:38:07;23.90;75.20
72936;DHT22;61085;48.804;9.228;2023-05-07T08:40:39;24.10;74.70
72936;DHT22;61085;48.804;9.228;2023-05-07T08:43:06;23.90;72.10
72936;DHT22;61085;48.804;9.228;2023-05-07T08:45:33;23.60;73.30
72936;DHT22;61085;48.804;9.228;2023-05-07T08:48:02;23.40;76.10
72936;DHT22;61085;48.804;9.228;2023-05-07T08:50:28;23.60;74.80
72936;DHT22;61085;48.804;9.228;2023-05-07T08:52:54;23.60;73.80
72936;DHT22;61085;48.804;9.228;2023-05-07T08:55:23;24.00;77.10
72936;DHT22;61085;48.804;9.228;2023-05-07T08:57:49;24.20;77.10
72936;DHT22;61085;48.804;9.228;2023-05-07T09:00:15;25.00;71.60
72936;DHT22;61085;48.804;9.228;2023-05-07T09:02:41;25.00;67.80
72936;DHT22;61085;48.804;9.228;2023-05-07T09:05:07;25.00;67.90
72936;DHT22;61085;48.804;9.228;2023-05-07T09:07:33;25.40;67.70
72936;DHT22;61085;48.804;9.228;2023-05-07T09:10:02;25.60;65.20
72936;DHT22;61085;48.804;9.228;2023-05-07T09:12:27;25.40;66.00
72936;DHT22;61085;48.804;9.228;2023-05-07T09:14:53;25.50;66.30
72936;DHT22;61085;48.804;9.228;2023-05-07T09:17:18;25.10;64.60
72936;DHT22;61085;48.804;9.228;2023-05-07T09:19:45;24.60;67.30
72936;DHT22;61085;48.804;9.228;2023-05-07T09:22:11;24.50;70.40
72936;DHT22;61085;48.804;9.228;2023-05-07T09:24:37;25.10;71.10
72936;DHT22;61085;48.804;9.228;2023-05-07T09:27:07;25.50;69.30
72936;DHT22;61085;48.804;9.228;2023-05-07T09:29:34;25.60;64.50
72936;DHT22;61085;48.804;9.228;2023-05-07T09:32:06;25.80;65.20
72936;DHT22;61085;48.804;9.228;2023-05-07T09:34:32;25.80;62.30
72936;DHT22;61085;48.804;9.228;2023-05-07T09:37:02;25.70;63.90
72936;DHT22;61085;48.804;9.228;2023-05-07T09:39:47;25.60;64.20
72936;DHT22;61085;48.804;9.228;2023-05-07T09:42:13;25.80;63.30
72936;DHT22;61085;48.804;9.228;2023-05-07T09:44:43;25.50;61.00
72936;DHT22;61085;48.804;9.228;2023-05-07T09:47:10;25.60;62.90
72936;DHT22;61085;48.804;9.228;2023-05-07T09:49:39;25.70;63.50
72936;DHT22;61085;48.804;9.228;2023-05-07T09:52:06;25.60;64.60
72936;DHT22;61085;48.804;9.228;2023-05-07T09:54:34;25.80;62.80
72936;DHT22;61085;48.804;9.228;2023-05-07T09:57:04;25.60;62.50
72936;DHT22;61085;48.804;9.228;2023-05-07T09:59:32;25.80;62.40
72936;DHT22;61085;48.804;9.228;2023-05-07T10:01:59;26.00;61.90
72936;DHT22;61085;48.804;9.228;2023-05-07T10:04:25;25.90;64.20
72936;DHT22;61085;48.804;9.228;2023-05-07T10:06:52;26.10;63.20
72936;DHT22;61085;48.804;9.228;2023-05-07T10:09:18;26.00;60.50
72936;DHT22;61085;48.804;9.228;2023-05-07T10:11:43;26.30;63.10
72936;DHT22;61085;48.804;9.228;2023-05-07T10:14:10;26.30;58.20
72936;DHT22;61085;48.804;9.228;2023-05-07T10:16:36;26.20;58.60
72936;DHT22;61085;48.804;9.228;2023-05-07T10:19:03;26.30;62.00
72936;DHT22;61085;48.804;9.228;2023-05-07T10:21:30;26.50;61.30
72936;DHT22;61085;48.804;9.228;2023-05-07T10:24:04;26.30;60.80
72936;DHT22;61085;48.804;9.228;2023-05-07T10:26:36;26.60;61.50
72936;DHT22;61085;48.804;9.228;2023-05-07T10:34:47;25.40;60.30
72936;DHT22;61085;48.804;9.228;2023-05-07T10:37:13;25.60;60.60
72936;DHT22;61085;48.804;9.228;2023-05-07T10:39:39;26.00;61.60
72936;DHT22;61085;48.804;9.228;2023-05-07T10:42:10;26.20;58.10
72936;DHT22;61085;48.804;9.228;2023-05-07T10:44:35;26.40;57.40
72936;DHT22;61085;48.804;9.228;2023-05-07T10:47:10;26.40;56.20
72936;DHT22;61085;48.804;9.228;2023-05-07T10:52:20;26.20;58.50
72936;DHT22;61085;48.804;9.228;2023-05-07T10:54:46;26.30;57.50
72936;DHT22;61085;48.804;9.228;2023-05-07T10:59:56;26.10;56.80
72936;DHT22;61085;48.804;9.228;2023-05-07T11:02:22;26.10;58.30
72936;DHT22;61085;48.804;9.228;2023-05-07T11:05:21;25.90;56.30
72936;DHT22;61085;48.804;9.228;2023-05-07T11:08:00;26.00;58.20
72936;DHT22;61085;48.804;9.228;2023-05-07T11:10:49;25.90;55.60
72936;DHT22;61085;48.804;9.228;2023-05-07T11:13:16;25.70;57.70
72936;DHT22;61085;48.804;9.228;2023-05-07T11:15:43;25.50;58.70
72936;DHT22;61085;48.804;9.228;2023-05-07T11:18:11;25.20;58.20
72936;DHT22;61085;48.804;9.228;2023-05-07T11:20:53;25.10;58.50
72936;DHT22;61085;48.804;9.228;2023-05-07T11:26:10;25.10;57.90
72936;DHT22;61085;48.804;9.228;2023-05-07T11:28:40;25.00;59.00
72936;DHT22;61085;48.804;9.228;2023-05-07T11:31:07;24.90;58.20
72936;DHT22;61085;48.804;9.228;2023-05-07T11:33:34;24.80;59.00
72936;DHT22;61085;48.804;9.228;2023-05-07T11:36:01;24.90;58.60
72936;DHT22;61085;48.804;9.228;2023-05-07T11:38:29;25.00;57.80
72936;DHT22;61085;48.804;9.228;2023-05-07T11:40:57;24.70;58.60
72936;DHT22;61085;48.804;9.228;2023-05-07T11:43:24;24.80;59.00
72936;DHT22;61085;48.804;9.228;2023-05-07T11:45:50;24.50;59.30
72936;DHT22;61085;48.804;9.228;2023-05-07T11:48:16;24.60;59.60
72936;DHT22;61085;48.804;9.228;2023-05-07T11:50:52;24.40;59.20
72936;DHT22;61085;48.804;9.228;2023-05-07T11:53:22;24.40;59.50
72936;DHT22;61085;48.804;9.228;2023-05-07T11:55:52;24.30;58.50
72936;DHT22;61085;48.804;9.228;2023-05-07T11:58:21;24.10;58.90
72936;DHT22;61085;48.804;9.228;2023-05-07T12:00:51;24.10;58.70
72936;DHT22;61085;48.804;9.228;2023-05-07T12:03:18;23.90;58.90
72936;DHT22;61085;48.804;9.228;2023-05-07T12:05:47;24.00;58.90
72936;DHT22;61085;48.804;9.228;2023-05-07T12:08:14;24.00;59.00
72936;DHT22;61085;48.804;9.228;2023-05-07T12:10:45;23.90;59.60
72936;DHT22;61085;48.804;9.228;2023-05-07T12:13:18;23.80;61.50
72936;DHT22;61085;48.804;9.228;2023-05-07T12:15:44;23.60;67.60
72936;DHT22;61085;48.804;9.228;2023-05-07T12:18:11;23.40;68.50
72936;DHT22;61085;48.804;9.228;2023-05-07T12:20:37;23.20;69.40
72936;DHT22;61085;48.804;9.228;2023-05-07T12:23:03;23.10;76.30
72936;DHT22;61085;48.804;9.228;2023-05-07T12:25:36;22.70;77.40
72936;DHT22;61085;48.804;9.228;2023-05-07T12:28:02;22.50;82.20
72936;DHT22;61085;48.804;9.228;2023-05-07T12:30:31;22.30;78.90
72936;DHT22;61085;48.804;9.228;2023-05-07T12:32:57;22.30;83.70
72936;DHT22;61085;48.804;9.228;2023-05-07T12:35:29;22.20;83.70
72936;DHT22;61085;48.804;9.228;2023-05-07T12:37:56;22.20;82.20
72936;DHT22;61085;48.804;9.228;2023-05-07T12:40:24;22.20;97.70
72936;DHT22;61085;48.804;9.228;2023-05-07T12:42:53;22.20;99.50
72936;DHT22;61085;48.804;9.228;2023-05-07T12:45:21;22.00;99.20
72936;DHT22;61085;48.804;9.228;2023-05-07T12:47:47;21.90;99.30
72936;DHT22;61085;48.804;9.228;2023-05-07T12:50:14;21.60;99.90
72936;DHT22;61085;48.804;9.228;2023-05-07T12:52:40;21.40;99.90
72936;DHT22;61085;48.804;9.228;2023-05-07T12:55:07;21.20;99.90
72936;DHT22;61085;48.804;9.228;2023-05-07T12:57:40;21.10;99.90
72936;DHT22;61085;48.804;9.228;2023-05-07T13:00:07;21.00;99.90
72936;DHT22;61085;48.804;9.228;2023-05-07T13:02:33;20.90;99.90
72936;DHT22;61085;48.804;9.228;2023-05-07T13:05:00;20.70;99.90
72936;DHT22;61085;48.804;9.228;2023-05-07T13:07:25;20.40;99.90
72936;DHT22;61085;48.804;9.228;2023-05-07T13:09:51;20.50;99.90
72936;DHT22;61085;48.804;9.228;2023-05-07T13:12:17;20.30;99.90
72936;DHT22;61085;48.804;9.228;2023-05-07T13:14:42;20.30;99.90
72936;DHT22;61085;48.804;9.228;2023-05-07T13:17:08;20.00;99.90
72936;DHT22;61085;48.804;9.228;2023-05-07T13:19:33;20.00;99.90
72936;DHT22;61085;48.804;9.228;2023-05-07T13:21:59;19.90;99.90
72936;DHT22;61085;48.804;9.228;2023-05-07T13:24:24;19.70;99.90
72936;DHT22;61085;48.804;9.228;2023-05-07T13:26:50;19.40;99.90
72936;DHT22;61085;48.804;9.228;2023-05-07T13:29:16;19.30;99.90
72936;DHT22;61085;48.804;9.228;2023-05-07T13:31:41;19.20;99.90
72936;DHT22;61085;48.804;9.228;2023-05-07T13:34:09;19.00;99.90
72936;DHT22;61085;48.804;9.228;2023-05-07T13:36:35;18.90;99.90
72936;DHT22;61085;48.804;9.228;2023-05-07T13:39:03;18.80;99.90
72936;DHT22;61085;48.804;9.228;2023-05-07T13:41:29;18.50;99.90
72936;DHT22;61085;48.804;9.228;2023-05-07T13:43:55;18.40;99.90
72936;DHT22;61085;48.804;9.228;2023-05-07T13:46:21;18.20;99.90
72936;DHT22;61085;48.804;9.228;2023-05-07T13:48:47;18.20;99.90
72936;DHT22;61085;48.804;9.228;2023-05-07T13:51:13;18.20;99.90
72936;DHT22;61085;48.804;9.228;2023-05-07T13:53:39;18.20;99.90
72936;DHT22;61085;48.804;9.228;2023-05-07T13:56:04;18.10;99.90
72936;DHT22;61085;48.804;9.228;2023-05-07T13:58:30;18.00;99.90
72936;DHT22;61085;48.804;9.228;2023-05-07T14:00:56;18.10;99.90
72936;DHT22;61085;48.804;9.228;2023-05-07T14:03:22;18.00;99.90
72936;DHT22;61085;48.804;9.228;2023-05-07T14:05:47;18.10;99.90
72936;DHT22;61085;48.804;9.228;2023-05-07T14:08:13;18.10;99.90
72936;DHT22;61085;48.804;9.228;2023-05-07T14:10:39;18.20;99.90
72936;DHT22;61085;48.804;9.228;2023-05-07T14:13:05;18.30;99.90
72936;DHT22;61085;48.804;9.228;2023-05-07T14:15:31;18.20;99.90
72936;DHT22;61085;48.804;9.228;2023-05-07T14:17:58;18.20;99.90
72936;DHT22;61085;48.804;9.228;2023-05-07T14:20:25;18.10;99.90
72936;DHT22;61085;48.804;9.228;2023-05-07T14:22:51;18.20;99.90
72936;DHT22;61085;48.804;9.228;2023-05-07T14:25:16;18.00;99.90
72936;DHT22;61085;48.804;9.228;2023-05-07T14:27:42;17.90;99.90
72936;DHT22;61085;48.804;9.228;2023-05-07T14:30:08;17.80;99.90
72936;DHT22;61085;48.804;9.228;2023-05-07T14:32:34;17.90;99.90
72936;DHT22;61085;48.804;9.228;2023-05-07T14:35:00;17.80;99.90
72936;DHT22;61085;48.804;9.228;2023-05-07T14:37:25;17.90;99.90
72936;DHT22;61085;48.804;9.228;2023-05-07T14:39:51;18.00;99.90
72936;DHT22;61085;48.804;9.228;2023-05-07T14:42:17;18.00;99.90
72936;DHT22;61085;48.804;9.228;2023-05-07T14:44:42;17.90;99.90
72936;DHT22;61085;48.804;9.228;2023-05-07T14:47:10;17.90;99.90
72936;DHT22;61085;48.804;9.228;2023-05-07T14:49:35;18.10;99.90
72936;DHT22;61085;48.804;9.228;2023-05-07T14:52:01;18.10;99.90
72936;DHT22;61085;48.804;9.228;2023-05-07T14:54:27;18.10;99.90
72936;DHT22;61085;48.804;9.228;2023-05-07T14:56:52;18.10;99.90
72936;DHT22;61085;48.804;9.228;2023-05-07T14:59:19;18.10;99.90
72936;DHT22;61085;48.804;9.228;2023-05-07T15:01:47;18.10;99.90
72936;DHT22;61085;48.804;9.228;2023-05-07T15:04:12;18.00;99.90
72936;DHT22;61085;48.804;9.228;2023-05-07T15:06:38;18.00;99.90
72936;DHT22;61085;48.804;9.228;2023-05-07T15:09:04;18.10;99.90
72936;DHT22;61085;48.804;9.228;2023-05-07T15:11:30;18.30;99.90
72936;DHT22;61085;48.804;9.228;2023-05-07T15:13:56;18.20;99.90
72936;DHT22;61085;48.804;9.228;2023-05-07T15:16:21;17.90;99.90
72936;DHT22;61085;48.804;9.228;2023-05-07T15:18:48;17.70;99.90
72936;DHT22;61085;48.804;9.228;2023-05-07T15:21:13;17.60;99.90
72936;DHT22;61085;48.804;9.228;2023-05-07T15:23:39;17.40;99.90
72936;DHT22;61085;48.804;9.228;2023-05-07T15:26:06;17.30;99.90
72936;DHT22;61085;48.804;9.228;2023-05-07T15:28:33;17.20;99.90
72936;DHT22;61085;48.804;9.228;2023-05-07T15:30:59;17.20;99.90
72936;DHT22;61085;48.804;9.228;2023-05-07T15:33:25;17.30;99.90
72936;DHT22;61085;48.804;9.228;2023-05-07T15:35:50;17.50;99.90
72936;DHT22;61085;48.804;9.228;2023-05-07T15:38:16;17.60;99.90
72936;DHT22;61085;48.804;9.228;2023-05-07T15:40:41;17.70;99.90